Time;durP1;ratioP1;P1;durP2;ratioP2;P2;SDS_P1;SDS_P2;PMS_P1;PMS_P2;Temp;Humidity;BMP_temperature;BMP_pressure;BME280_temperature;BME280_humidity;BME280_pressure;Samples;Min_cycle;Max_cycle;Signal;HPM_P1;HPM_P2
2023/06/08 00:03:45;;;;;;;7.15;5.55;;;;;;;19.75;61.81;100211.09;10290234;28;20053;-62
2023/06/08 00:08:47;;;;;;;7.38;5.65;;;;;;;19.75;61.73;100220.09;10289187;28;20039;-62
2023/06/08 00:13:48;;;;;;;6.82;5.63;;;;;;;19.77;61.83;100206.22;10285814;28;20495;-62
2023/06/08 00:18:54;;;;;;;7.93;5.82;;;;;;;19.77;61.71;100206.22;10279853;28;20030;-62
2023/06/08 00:23:56;;;;;;;6.60;5.43;;;;;;;19.75;61.34;100197.44;10287102;28;20062;-62
2023/06/08 00:28:57;;;;;;;9.15;5.50;;;;;;;19.72;61.02;100200.66;10288973;28;20070;-62
2023/06/08 00:33:59;;;;;;;5.72;5.07;;;;;;;19.65;61.59;100203.47;10288828;28;20845;-62
2023/06/08 00:39:00;;;;;;;6.30;5.35;;;;;;;19.62;61.07;100193.03;10285216;28;20058;-62
2023/06/08 00:44:07;;;;;;;7.57;5.10;;;;;;;19.56;60.60;100194.81;10270711;28;20058;-62
2023/06/08 00:49:15;;;;;;;6.18;5.28;;;;;;;19.50;60.89;100190.31;10275001;28;20102;-62
2023/06/08 00:54:17;;;;;;;6.68;5.55;;;;;;;19.53;61.08;100198.03;10293528;28;20053;-62
2023/06/08 00:59:20;;;;;;;13.95;5.50;;;;;;;19.54;61.02;100199.69;10292281;28;20402;-62
2023/06/08 01:04:23;;;;;;;6.93;5.32;;;;;;;19.52;61.27;100209.19;10286455;28;20050;-62
2023/06/08 01:09:33;;;;;;;8.07;4.95;;;;;;;19.43;61.04;100200.53;10287445;28;20050;-62
2023/06/08 01:15:02;;;;;;;9.63;5.47;;;;;;;19.37;60.98;100196.03;10288003;28;20051;-62
2023/06/08 01:20:15;;;;;;;8.27;5.68;;;;;;;19.26;61.08;100194.97;10289552;28;20490;-62
2023/06/08 01:25:18;;;;;;;6.00;5.30;;;;;;;19.17;60.80;100202.69;10282494;28;20047;-62
2023/06/08 01:30:19;;;;;;;6.30;4.57;;;;;;;19.16;60.81;100198.28;10284918;28;20046;-62
2023/06/08 01:35:21;;;;;;;6.72;4.65;;;;;;;19.05;60.82;100193.66;10292698;28;20073;-62
2023/06/08 01:40:29;;;;;;;6.63;4.93;;;;;;;18.98;60.84;100201.13;10289140;28;20398;-61
2023/06/08 01:45:38;;;;;;;5.25;4.75;;;;;;;18.92;60.80;100193.91;10294809;28;20043;-62
2023/06/08 01:50:41;;;;;;;7.22;5.82;;;;;;;18.89;61.30;100191.63;10285817;28;20394;-62
2023/06/08 01:55:43;;;;;;;8.23;6.18;;;;;;;18.80;61.57;100200.16;10285353;28;20101;-62
2023/06/08 02:00:44;;;;;;;7.50;5.63;;;;;;;18.75;61.35;100197.25;10284415;28;20063;-62
2023/06/08 02:05:45;;;;;;;6.70;5.63;;;;;;;18.74;61.32;100192.88;10287362;28;20047;-62
2023/06/08 02:10:47;;;;;;;7.93;5.85;;;;;;;18.76;61.22;100192.63;10291772;28;20060;-62
2023/06/08 02:15:48;;;;;;;7.85;5.22;;;;;;;18.73;61.23;100188.50;10282099;28;20047;-62
2023/06/08 02:20:50;;;;;;;6.65;5.95;;;;;;;18.80;61.46;100197.44;10280634;28;20045;-61
2023/06/08 02:25:51;;;;;;;7.82;6.15;;;;;;;18.89;61.45;100194.34;10282632;28;20102;-62
2023/06/08 02:30:53;;;;;;;18.35;6.95;;;;;;;18.94;61.26;100180.88;10273473;28;20047;-63
2023/06/08 02:35:54;;;;;;;8.73;6.18;;;;;;;18.94;61.24;100183.59;10281984;28;20062;-63
2023/06/08 02:40:56;;;;;;;8.13;6.07;;;;;;;18.95;61.28;100191.50;10281430;28;20066;-63
2023/06/08 02:45:57;;;;;;;7.13;5.78;;;;;;;18.99;61.36;100189.16;10289490;28;20055;-61
2023/06/08 02:50:59;;;;;;;9.73;6.97;;;;;;;19.11;61.28;100200.06;10293276;28;20070;-62
2023/06/08 02:56:02;;;;;;;8.02;6.47;;;;;;;19.06;61.27;100178.97;10293543;28;20138;-61
2023/06/08 03:01:04;;;;;;;9.77;6.28;;;;;;;19.10;61.13;100188.34;10293507;28;20455;-62
2023/06/08 03:06:21;;;;;;;11.52;6.80;;;;;;;19.09;61.05;100181.22;10293054;28;20053;-63
2023/06/08 03:11:23;;;;;;;9.77;6.47;;;;;;;18.97;61.32;100186.66;10297654;28;20047;-61
2023/06/08 03:16:24;;;;;;;10.07;6.47;;;;;;;18.93;61.27;100181.91;10292543;28;20055;-65
2023/06/08 03:21:28;;;;;;;7.30;6.28;;;;;;;18.87;61.26;100182.88;10293296;28;20050;-65
2023/06/08 03:26:30;;;;;;;7.68;6.57;;;;;;;18.88;61.33;100184.50;10294884;28;20071;-65
2023/06/08 03:31:36;;;;;;;12.15;7.35;;;;;;;18.88;61.22;100188.09;10286293;28;20047;-66
2023/06/08 03:36:38;;;;;;;9.95;6.63;;;;;;;18.79;61.72;100178.56;10298614;28;20553;-65
2023/06/08 03:41:40;;;;;;;8.93;7.25;;;;;;;18.71;61.68;100187.91;10297707;28;20049;-65
2023/06/08 03:46:42;;;;;;;10.00;6.40;;;;;;;18.69;61.59;100190.03;10289300;28;20042;-65
2023/06/08 03:51:43;;;;;;;7.43;6.68;;;;;;;18.63;61.65;100190.97;10292005;28;20077;-65
2023/06/08 03:56:45;;;;;;;10.73;7.32;;;;;;;18.66;61.64;100185.06;10290680;28;20045;-65
2023/06/08 04:01:46;;;;;;;10.68;7.25;;;;;;;18.69;61.73;100184.56;10299077;28;20093;-64
2023/06/08 04:06:48;;;;;;;8.85;6.60;;;;;;;18.72;61.82;100180.53;10290764;28;20040;-65
2023/06/08 04:11:49;;;;;;;8.52;6.93;;;;;;;18.76;61.70;100187.19;10296514;28;20046;-66
2023/06/08 04:16:51;;;;;;;8.40;6.30;;;;;;;18.76;61.61;100187.19;10291539;28;20038;-65
2023/06/08 04:21:56;;;;;;;6.93;6.22;;;;;;;18.78;61.72;100198.69;10292541;28;20050;-67
2023/06/08 04:26:58;;;;;;;7.03;6.23;;;;;;;18.82;61.68;100189.84;10260302;28;20414;-63
2023/06/08 04:32:00;;;;;;;8.48;6.00;;;;;;;18.85;61.78;100188.53;10297014;28;20051;-63
2023/06/08 04:37:01;;;;;;;6.38;5.55;;;;;;;19.01;61.53;100193.28;10270897;28;20069;-64
2023/06/08 04:42:05;;;;;;;8.05;6.05;;;;;;;19.13;61.35;100192.47;10283752;28;20051;-64
2023/06/08 04:47:07;;;;;;;6.60;5.60;;;;;;;19.31;61.29;100210.59;10294527;28;20050;-65
2023/06/08 04:52:09;;;;;;;7.75;5.78;;;;;;;19.54;61.18;100209.78;10290061;28;20061;-65
2023/06/08 04:57:11;;;;;;;9.40;5.43;;;;;;;19.81;61.00;100200.03;10288007;28;20509;-66
2023/06/08 05:02:12;;;;;;;6.68;5.00;;;;;;;20.07;60.58;100208.75;10291453;28;20364;-65
2023/06/08 05:07:14;;;;;;;6.78;5.32;;;;;;;20.39;59.90;100209.06;10277224;28;20047;-65
2023/06/08 05:12:15;;;;;;;9.23;5.70;;;;;;;20.66;59.77;100200.31;10287062;28;20051;-66
2023/06/08 05:17:17;;;;;;;5.95;5.20;;;;;;;20.97;59.02;100200.81;10282873;28;20042;-65
2023/06/08 05:22:18;;;;;;;7.45;4.57;;;;;;;21.25;58.70;100197.19;10289331;28;20510;-66
2023/06/08 05:27:20;;;;;;;5.70;4.90;;;;;;;21.41;58.25;100198.22;10283038;28;20050;-65
2023/06/08 05:32:21;;;;;;;6.63;4.68;;;;;;;21.46;58.37;100186.56;10297596;28;20047;-62
2023/06/08 05:37:23;;;;;;;7.50;4.45;;;;;;;21.57;57.64;100180.97;10289882;28;20183;-62
2023/06/08 05:42:25;;;;;;;5.28;3.78;;;;;;;21.69;57.26;100177.28;10274597;28;20054;-61
2023/06/08 05:47:26;;;;;;;5.25;4.10;;;;;;;21.78;57.29;100183.97;10279927;28;20152;-61
2023/06/08 05:52:32;;;;;;;6.37;4.87;;;;;;;21.90;56.65;100195.63;10289627;28;21492;-61
2023/06/08 05:57:33;;;;;;;5.35;4.85;;;;;;;21.97;56.41;100188.03;10285615;28;20045;-61
2023/06/08 06:02:35;;;;;;;7.60;4.80;;;;;;;22.09;56.13;100192.56;10282863;28;20054;-61
2023/06/08 06:07:37;;;;;;;6.00;4.22;;;;;;;22.28;55.67;100198.56;10284190;28;20133;-61
2023/06/08 06:12:38;;;;;;;4.00;3.65;;;;;;;22.45;54.80;100203.91;10270892;28;20051;-62
2023/06/08 06:17:40;;;;;;;4.68;4.07;;;;;;;22.64;54.51;100198.91;10284547;28;20042;-61
2023/06/08 06:22:41;;;;;;;7.05;4.18;;;;;;;22.85;53.89;100206.22;10291103;28;20046;-62
2023/06/08 06:27:43;;;;;;;6.38;3.97;;;;;;;22.93;53.60;100203.00;10289610;28;20157;-62
2023/06/08 06:32:48;;;;;;;8.70;4.15;;;;;;;23.05;53.04;100205.59;10291424;28;20043;-61
2023/06/08 06:37:53;;;;;;;5.55;3.85;;;;;;;23.27;52.33;100202.72;10288532;28;20047;-62
2023/06/08 06:42:54;;;;;;;7.07;4.05;;;;;;;23.38;51.96;100211.03;10285285;28;20058;-62
2023/06/08 06:47:56;;;;;;;6.55;4.10;;;;;;;23.66;51.21;100196.94;10282462;28;20047;-62
2023/06/08 06:52:57;;;;;;;5.78;3.72;;;;;;;23.87;50.81;100202.53;10291801;28;20529;-63
2023/06/08 06:58:00;;;;;;;4.38;3.40;;;;;;;24.08;49.76;100200.69;10285667;28;20069;-60
2023/06/08 07:03:06;;;;;;;4.70;3.80;;;;;;;24.15;49.45;100199.34;10268056;28;20047;-60
2023/06/08 07:08:07;;;;;;;4.07;3.70;;;;;;;24.38;49.24;100196.38;10289626;28;20052;-61
2023/06/08 07:13:09;;;;;;;4.95;3.38;;;;;;;24.32;49.60;100196.34;10284216;28;20058;-61
2023/06/08 07:18:10;;;;;;;7.53;4.38;;;;;;;24.39;49.14;100190.63;10284800;28;20105;-61
2023/06/08 07:23:12;;;;;;;5.93;4.00;;;;;;;24.52;48.17;100189.28;10285982;28;20054;-61
2023/06/08 07:28:33;;;;;;;9.30;4.15;;;;;;;24.66;48.09;100184.91;10286545;28;20071;-61
2023/06/08 07:33:35;;;;;;;4.47;4.07;;;;;;;24.79;47.35;100194.53;10293190;28;20050;-60
2023/06/08 07:38:36;;;;;;;5.13;4.30;;;;;;;24.72;47.80;100191.22;10289372;28;20467;-61
2023/06/08 07:43:39;;;;;;;4.25;3.85;;;;;;;24.87;47.25;100193.16;10290205;28;20515;-61
2023/06/08 07:48:40;;;;;;;5.15;4.05;;;;;;;25.01;47.04;100193.44;10283413;28;20050;-61
2023/06/08 07:53:42;;;;;;;4.15;3.70;;;;;;;25.11;47.04;100194.25;10292205;28;20042;-63
2023/06/08 07:58:43;;;;;;;3.50;3.20;;;;;;;25.31;46.69;100192.59;10286996;28;20073;-62
2023/06/08 08:03:45;;;;;;;5.68;3.92;;;;;;;25.52;46.53;100193.38;10290037;28;20061;-60
2023/06/08 08:08:47;;;;;;;4.38;3.97;;;;;;;25.68;45.91;100203.22;10292415;28;20039;-61
2023/06/08 08:13:49;;;;;;;8.57;4.45;;;;;;;25.72;46.01;100209.00;10294047;28;20047;-60
2023/06/08 08:18:51;;;;;;;7.18;3.90;;;;;;;25.83;46.14;100205.13;10299444;28;20125;-60
2023/06/08 08:23:52;;;;;;;4.18;3.53;;;;;;;26.02;45.50;100205.31;10291543;28;20057;-63
2023/06/08 08:28:56;;;;;;;6.20;3.70;;;;;;;26.20;44.80;100201.09;10284442;28;20047;-60
2023/06/08 08:33:58;;;;;;;5.18;3.78;;;;;;;26.34;44.53;100206.81;10286905;28;20043;-60
2023/06/08 08:38:59;;;;;;;6.57;4.25;;;;;;;26.44;44.68;100203.16;10280012;28;20055;-62
2023/06/08 08:44:04;;;;;;;4.70;3.72;;;;;;;26.54;44.07;100199.53;10278666;28;20518;-62
2023/06/08 08:49:13;;;;;;;6.18;4.15;;;;;;;26.60;44.21;100199.25;10271488;28;20037;-64
2023/06/08 08:54:16;;;;;;;5.25;4.28;;;;;;;26.70;43.95;100190.91;10290327;28;20035;-61
2023/06/08 08:59:18;;;;;;;4.07;3.78;;;;;;;26.79;43.48;100199.38;10296904;28;20071;-63
2023/06/08 09:04:19;;;;;;;4.50;4.10;;;;;;;26.48;44.12;100198.72;10285148;28;20046;-60
2023/06/08 09:09:21;;;;;;;8.57;3.95;;;;;;;26.69;43.85;100200.25;10286402;28;20394;-61
2023/06/08 09:14:22;;;;;;;5.15;4.07;;;;;;;26.93;43.58;100199.53;10294644;28;20089;-63
2023/06/08 09:19:24;;;;;;;4.60;3.65;;;;;;;27.03;43.45;100185.63;10294014;28;20050;-60
2023/06/08 09:24:25;;;;;;;5.28;3.65;;;;;;;27.29;43.25;100185.41;10291606;28;20054;-61
2023/06/08 09:29:43;;;;;;;6.68;4.00;;;;;;;27.46;43.08;100180.25;10286897;28;20070;-61
2023/06/08 09:34:53;;;;;;;4.50;3.85;;;;;;;27.61;42.61;100164.66;10288382;28;21708;-61
2023/06/08 09:39:55;;;;;;;4.22;3.83;;;;;;;27.68;42.00;100159.59;10287177;28;20050;-63
2023/06/08 09:45:11;;;;;;;9.38;4.32;;;;;;;27.77;42.15;100155.06;10281134;28;20053;-62
2023/06/08 09:50:13;;;;;;;4.33;3.97;;;;;;;27.76;41.93;100156.16;10284747;28;20104;-64
2023/06/08 09:55:15;;;;;;;4.57;4.07;;;;;;;27.97;41.71;100159.50;10283319;28;20047;-65
2023/06/08 10:00:23;;;;;;;5.10;4.05;;;;;;;28.15;41.58;100154.31;10286155;28;20450;-65
2023/06/08 10:05:27;;;;;;;5.75;3.65;;;;;;;28.24;41.34;100153.34;10296140;28;20050;-65
2023/06/08 10:10:34;;;;;;;3.63;3.33;;;;;;;28.35;40.90;100150.41;10289336;28;20057;-65
2023/06/08 10:15:36;;;;;;;5.40;3.13;;;;;;;28.59;40.42;100148.38;10277715;28;20526;-65
2023/06/08 10:20:38;;;;;;;4.03;3.70;;;;;;;28.58;40.50;100149.53;10285798;28;20059;-65
2023/06/08 10:25:41;;;;;;;5.68;3.67;;;;;;;28.73;40.69;100142.06;10272141;28;20054;-66
2023/06/08 10:30:42;;;;;;;4.45;3.97;;;;;;;28.64;40.47;100141.97;10285981;28;20050;-64
2023/06/08 10:36:03;;;;;;;5.80;3.67;;;;;;;28.82;40.32;100129.19;10289886;28;20102;-64
2023/06/08 10:41:05;;;;;;;3.38;3.17;;;;;;;29.04;39.76;100118.25;10278328;28;20134;-65
2023/06/08 10:46:06;;;;;;;5.88;2.95;;;;;;;29.19;38.65;100102.53;10291662;28;20549;-64
2023/06/08 10:51:11;;;;;;;3.85;2.78;;;;;;;29.42;37.36;100103.44;10284718;28;20077;-64
2023/06/08 10:56:16;;;;;;;3.25;3.03;;;;;;;29.62;37.85;100096.66;10288310;28;20126;-66
2023/06/08 11:01:19;;;;;;;4.82;3.22;;;;;;;29.77;37.95;100093.59;10281747;28;20039;-65
2023/06/08 11:06:20;;;;;;;4.38;3.53;;;;;;;29.98;36.29;100090.38;10293552;28;20452;-65
2023/06/08 11:11:22;;;;;;;3.63;3.25;;;;;;;30.07;36.22;100082.94;10296221;28;20067;-63
2023/06/08 11:16:23;;;;;;;4.00;3.60;;;;;;;30.15;36.53;100073.84;10299526;28;20077;-63
2023/06/08 11:21:26;;;;;;;4.75;3.60;;;;;;;30.13;35.87;100072.53;10282942;28;20065;-63
2023/06/08 11:26:27;;;;;;;6.32;3.47;;;;;;;30.44;36.47;100064.31;10298316;28;20054;-64
2023/06/08 11:31:38;;;;;;;4.47;3.67;;;;;;;30.69;35.46;100048.13;10303084;28;20049;-64
2023/06/08 11:36:41;;;;;;;5.93;3.40;;;;;;;30.60;35.30;100051.66;10302888;28;20138;-63
2023/06/08 11:41:46;;;;;;;4.10;3.55;;;;;;;30.55;35.38;100050.97;10284815;28;20043;-63
2023/06/08 11:46:48;;;;;;;3.70;3.40;;;;;;;30.62;34.97;100046.63;10286430;28;20061;-64
2023/06/08 11:51:50;;;;;;;4.45;3.50;;;;;;;30.83;35.24;100033.03;10290824;28;20046;-63
2023/06/08 11:56:51;;;;;;;4.00;3.60;;;;;;;30.98;35.38;100033.75;10293193;28;20055;-64
2023/06/08 12:01:59;;;;;;;3.10;2.90;;;;;;;31.22;34.55;100016.66;10286311;28;20046;-62
2023/06/08 12:07:11;;;;;;;3.83;3.35;;;;;;;31.59;34.12;100018.06;10300127;28;20502;-65
2023/06/08 12:12:12;;;;;;;4.47;2.63;;;;;;;31.75;34.36;100031.50;10260985;28;20385;-62
2023/06/08 12:17:17;;;;;;;4.55;3.38;;;;;;;31.69;33.62;100018.91;10287242;28;20113;-60
2023/06/08 12:22:19;;;;;;;5.38;3.13;;;;;;;31.60;33.86;100005.81;10293614;28;20042;-61
2023/06/08 12:27:21;;;;;;;3.53;2.50;;;;;;;31.47;34.15;100011.53;10294758;28;20050;-61
2023/06/08 12:32:23;;;;;;;3.40;2.88;;;;;;;31.42;34.67;100012.50;10279281;28;20050;-61
2023/06/08 12:37:24;;;;;;;5.45;3.10;;;;;;;31.30;34.31;100023.38;10291131;28;20050;-61
2023/06/08 12:42:26;;;;;;;2.80;2.55;;;;;;;31.26;34.62;100022.41;10293491;28;20042;-58
2023/06/08 12:47:28;;;;;;;3.15;2.85;;;;;;;31.26;34.57;100008.53;10296443;28;20038;-58
2023/06/08 12:52:29;;;;;;;3.85;3.10;;;;;;;31.15;34.75;100010.78;10288776;28;20035;-59
2023/06/08 12:57:30;;;;;;;3.35;2.58;;;;;;;31.52;34.12;99998.31;10273283;28;20051;-58
2023/06/08 13:02:32;;;;;;;2.20;2.00;;;;;;;31.86;31.94;99995.88;10275442;28;20050;-58
2023/06/08 13:07:35;;;;;;;2.13;1.70;;;;;;;31.98;30.35;99996.81;10291191;28;20081;-58
2023/06/08 13:12:36;;;;;;;4.18;2.75;;;;;;;32.31;30.22;99981.59;10292475;28;20056;-58
2023/06/08 13:17:40;;;;;;;2.13;1.85;;;;;;;32.37;30.19;99977.47;10269825;28;20053;-58
2023/06/08 13:22:42;;;;;;;3.35;2.22;;;;;;;32.75;29.81;99977.53;10278159;28;20050;-59
2023/06/08 13:27:44;;;;;;;2.72;2.10;;;;;;;32.80;28.86;99976.50;10292324;28;20439;-60
2023/06/08 13:32:45;;;;;;;2.78;2.10;;;;;;;33.27;28.33;99970.06;10291796;28;20145;-59
2023/06/08 13:37:47;;;;;;;2.47;2.13;;;;;;;33.77;27.60;99966.41;10283731;28;20153;-60
2023/06/08 13:42:49;;;;;;;2.05;1.88;;;;;;;34.09;27.10;99950.03;10284292;28;20056;-59
2023/06/08 13:47:50;;;;;;;2.22;2.03;;;;;;;34.49;26.88;99930.69;10287871;28;20050;-59
2023/06/08 13:52:56;;;;;;;2.03;1.83;;;;;;;35.05;25.24;99920.91;10285395;28;20058;-59
2023/06/08 13:57:58;;;;;;;2.85;1.98;;;;;;;35.48;24.99;99917.44;10279080;28;20047;-59
2023/06/08 14:03:00;;;;;;;2.72;1.88;;;;;;;35.97;24.26;99936.03;10283935;28;20100;-59
2023/06/08 14:08:01;;;;;;;2.20;2.00;;;;;;;36.01;24.14;99948.13;10292586;28;20076;-59
2023/06/08 14:13:03;;;;;;;1.75;1.60;;;;;;;35.48;25.48;99950.19;10289856;28;20050;-59
2023/06/08 14:18:04;;;;;;;3.28;1.95;;;;;;;34.50;27.64;99956.63;10295618;28;20054;-58
2023/06/08 14:23:06;;;;;;;2.67;1.95;;;;;;;33.80;27.73;99959.34;10281273;28;20046;-59
2023/06/08 14:28:07;;;;;;;2.33;1.90;;;;;;;33.58;28.97;99961.28;10285618;28;20134;-59
2023/06/08 14:33:12;;;;;;;2.47;2.05;;;;;;;33.49;28.74;99961.38;10283357;28;20833;-59
2023/06/08 14:38:13;;;;;;;10.50;2.00;;;;;;;33.09;29.89;100009.16;10290966;28;20069;-64
2023/06/08 14:43:15;;;;;;;13.23;4.30;;;;;;;30.98;36.49;100047.63;10294502;28;20043;-64
2023/06/08 14:48:17;;;;;;;13.05;4.13;;;;;;;28.29;41.93;100059.25;10294436;28;20050;-64
2023/06/08 14:53:20;;;;;;;14.15;5.47;;;;;;;25.79;47.32;100077.34;10299322;28;20062;-64
2023/06/08 14:58:21;;;;;;;16.00;5.40;;;;;;;24.52;49.34;100049.94;10279943;28;20046;-65
2023/06/08 15:03:22;;;;;;;22.35;6.93;;;;;;;22.63;55.18;100054.75;10285722;28;20074;-64
2023/06/08 15:08:24;;;;;;;9.73;6.72;;;;;;;21.11;60.47;100018.16;10276869;28;20077;-62
2023/06/08 15:13:26;;;;;;;9.27;5.03;;;;;;;20.61;60.88;100003.56;10297698;28;20042;-63
2023/06/08 15:18:27;;;;;;;10.02;6.65;;;;;;;20.23;61.78;100007.88;10290126;28;20050;-63
2023/06/08 15:23:32;;;;;;;7.97;6.78;;;;;;;20.04;63.06;100023.66;10293851;28;20042;-62
2023/06/08 15:28:34;;;;;;;10.18;7.88;;;;;;;20.06;63.61;100026.16;10297554;28;20479;-63
2023/06/08 15:33:35;;;;;;;12.75;8.70;;;;;;;20.18;64.50;100025.00;10291964;28;20379;-63
2023/06/08 15:38:37;;;;;;;11.13;8.73;;;;;;;20.24;65.13;100016.88;10293683;28;20498;-63
2023/06/08 15:43:40;;;;;;;9.55;8.65;;;;;;;20.44;66.05;100017.22;10301008;28;20047;-64
2023/06/08 15:48:41;;;;;;;13.25;11.00;;;;;;;20.61;67.34;100017.22;10287642;28;20061;-64
2023/06/08 15:53:42;;;;;;;15.48;9.30;;;;;;;20.72;68.11;100013.56;10293495;28;20047;-62
2023/06/08 15:58:49;;;;;;;11.80;10.57;;;;;;;20.93;68.70;100006.50;10283746;28;20070;-64
2023/06/08 16:03:51;;;;;;;10.48;9.32;;;;;;;21.14;68.83;100007.56;10287972;28;20050;-63
2023/06/08 16:08:52;;;;;;;9.88;8.88;;;;;;;21.36;69.60;99999.34;10290543;28;20053;-63
2023/06/08 16:13:55;;;;;;;12.07;9.73;;;;;;;21.61;69.59;99989.81;10286564;28;20429;-65
2023/06/08 16:18:57;;;;;;;8.95;6.65;;;;;;;21.65;69.31;100009.28;10284738;28;20533;-63
2023/06/08 16:23:59;;;;;;;9.55;6.65;;;;;;;21.83;69.31;100017.09;10294769;28;20110;-63
2023/06/08 16:29:01;;;;;;;11.43;8.65;;;;;;;21.71;69.24;100038.34;10295687;28;20045;-63
2023/06/08 16:34:02;;;;;;;10.32;7.72;;;;;;;21.75;69.36;100064.09;10290028;28;20398;-61
2023/06/08 16:39:04;;;;;;;11.68;5.40;;;;;;;22.17;69.06;100047.78;10278218;28;20051;-62
2023/06/08 16:44:06;;;;;;;5.90;4.28;;;;;;;22.48;67.84;100037.13;10275217;28;20055;-63
2023/06/08 16:49:08;;;;;;;5.90;3.55;;;;;;;22.85;66.67;100028.06;10292126;28;20061;-63
2023/06/08 16:54:09;;;;;;;3.75;3.42;;;;;;;23.08;64.88;100021.34;10287434;28;20570;-61
2023/06/08 16:59:10;;;;;;;3.55;3.25;;;;;;;23.19;64.29;100016.75;10288721;28;20046;-60
2023/06/08 17:04:15;;;;;;;4.30;3.65;;;;;;;23.59;63.18;100019.88;10285708;28;20050;-60
2023/06/08 17:09:17;;;;;;;4.50;4.10;;;;;;;23.81;63.57;100023.25;10289551;28;20039;-61
2023/06/08 17:14:18;;;;;;;8.38;4.53;;;;;;;24.31;62.52;100005.16;10279892;28;20131;-60
2023/06/08 17:19:19;;;;;;;4.03;3.10;;;;;;;24.76;60.79;100013.63;10300167;28;20097;-61
2023/06/08 17:24:21;;;;;;;5.25;3.60;;;;;;;25.19;60.06;100025.03;10282254;28;20041;-62
2023/06/08 17:29:22;;;;;;;3.75;3.45;;;;;;;25.14;59.68;100023.13;10288669;28;20059;-61
2023/06/08 17:34:27;;;;;;;6.00;4.05;;;;;;;25.33;59.55;100008.78;10289815;28;20049;-62
2023/06/08 17:39:29;;;;;;;7.63;4.10;;;;;;;25.53;59.22;100013.34;10286557;28;20051;-62
2023/06/08 17:44:30;;;;;;;5.55;3.70;;;;;;;25.45;58.65;100009.25;10283684;28;20043;-61
2023/06/08 17:49:32;;;;;;;5.38;3.63;;;;;;;25.08;58.39;100006.91;10291741;28;20041;-61
2023/06/08 17:54:34;;;;;;;6.00;3.42;;;;;;;25.27;57.88;100020.91;10284695;28;20050;-61
2023/06/08 17:59:35;;;;;;;4.75;3.55;;;;;;;25.72;57.30;100044.63;10283985;28;20050;-62
2023/06/08 18:04:37;;;;;;;5.93;4.20;;;;;;;26.02;55.93;100037.28;10297972;28;20053;-59
2023/06/08 18:09:38;;;;;;;4.75;3.55;;;;;;;26.23;55.67;100032.44;10285972;28;20372;-61
2023/06/08 18:14:40;;;;;;;5.88;4.18;;;;;;;26.07;56.03;100033.69;10286262;28;20046;-57
2023/06/08 18:19:41;;;;;;;5.63;4.43;;;;;;;25.96;56.29;100023.84;10292415;28;20490;-57
2023/06/08 18:24:42;;;;;;;6.25;5.13;;;;;;;25.82;56.43;100024.44;10290130;28;20065;-57
2023/06/08 18:29:44;;;;;;;6.43;4.47;;;;;;;25.62;57.37;100028.16;10283508;28;20047;-57
2023/06/08 18:34:46;;;;;;;5.20;4.07;;;;;;;25.32;56.95;100012.63;10288142;28;20054;-57
2023/06/08 18:39:47;;;;;;;4.55;3.67;;;;;;;25.19;55.19;100000.28;10285744;28;20050;-57
2023/06/08 18:44:59;;;;;;;5.35;4.03;;;;;;;25.01;56.70;100011.91;10287394;28;20050;-58
2023/06/08 18:50:01;;;;;;;7.78;5.85;;;;;;;24.78;58.24;100007.84;10286344;28;20606;-58
2023/06/08 18:55:02;;;;;;;10.23;6.15;;;;;;;24.62;58.51;100007.88;10290842;28;20061;-57
2023/06/08 19:00:06;;;;;;;12.05;6.68;;;;;;;24.37;59.97;100008.72;10282532;28;20053;-58
2023/06/08 19:05:08;;;;;;;8.70;5.97;;;;;;;24.27;60.20;100017.78;10286923;28;20492;-59
2023/06/08 19:10:09;;;;;;;8.75;5.82;;;;;;;24.15;60.93;100020.81;10267360;28;20050;-57
2023/06/08 19:15:11;;;;;;;6.38;5.75;;;;;;;24.04;60.64;100026.59;10297029;28;20077;-58
2023/06/08 19:20:13;;;;;;;11.27;6.07;;;;;;;23.88;60.45;100040.28;10279622;28;20070;-57
2023/06/08 19:25:14;;;;;;;9.18;6.22;;;;;;;23.71;59.44;100050.66;10292675;28;20765;-58
2023/06/08 19:30:16;;;;;;;11.70;5.72;;;;;;;23.55;59.11;100056.09;10286296;28;20407;-57
2023/06/08 19:35:17;;;;;;;5.00;4.40;;;;;;;23.34;59.47;100068.06;10291343;28;20038;-57
2023/06/08 19:40:19;;;;;;;5.47;4.53;;;;;;;23.21;59.90;100068.59;10290015;28;20047;-58
2023/06/08 19:45:20;;;;;;;6.72;5.18;;;;;;;23.06;60.00;100063.84;10277148;28;20066;-57
2023/06/08 19:50:27;;;;;;;7.03;4.60;;;;;;;22.91;59.79;100065.38;10282813;28;20505;-58
2023/06/08 19:55:29;;;;;;;7.55;4.60;;;;;;;22.74;59.90;100060.03;10288933;28;20521;-58
2023/06/08 20:00:31;;;;;;;8.52;5.38;;;;;;;22.63;60.65;100061.09;10290967;28;20054;-58
2023/06/08 20:05:32;;;;;;;7.80;5.63;;;;;;;22.49;61.00;100073.56;10293719;28;20047;-58
2023/06/08 20:10:34;;;;;;;6.85;5.57;;;;;;;22.35;60.82;100068.53;10299366;28;20047;-58
2023/06/08 20:15:36;;;;;;;7.25;6.07;;;;;;;22.21;61.25;100083.69;10287312;28;20043;-59
2023/06/08 20:20:37;;;;;;;6.47;5.45;;;;;;;22.10;61.12;100085.53;10293609;28;20054;-57
2023/06/08 20:25:41;;;;;;;11.00;6.25;;;;;;;22.00;61.62;100090.91;10291441;28;20043;-58
2023/06/08 20:30:43;;;;;;;8.32;7.35;;;;;;;21.72;62.03;100094.69;10286170;28;20078;-57
2023/06/08 20:35:44;;;;;;;8.52;7.13;;;;;;;21.51;62.53;100094.47;10286604;28;20054;-57
2023/06/08 20:40:46;;;;;;;9.00;6.95;;;;;;;21.29;63.33;100102.63;10295133;28;20042;-58
2023/06/08 20:45:48;;;;;;;10.15;7.10;;;;;;;21.32;63.31;100112.22;10281945;28;20530;-58
2023/06/08 20:50:49;;;;;;;8.55;6.78;;;;;;;21.27;63.08;100112.16;10293634;28;20046;-57
2023/06/08 20:55:51;;;;;;;6.60;5.90;;;;;;;21.27;63.19;100123.94;10291733;28;20226;-59
2023/06/08 21:00:52;;;;;;;7.22;6.40;;;;;;;21.26;63.02;100133.19;10288345;28;20043;-58
2023/06/08 21:05:54;;;;;;;7.10;6.00;;;;;;;21.26;62.66;100140.56;10283166;28;20055;-59
2023/06/08 21:10:56;;;;;;;9.68;6.15;;;;;;;21.26;63.34;100151.50;10297413;28;20046;-60
2023/06/08 21:15:57;;;;;;;8.02;5.88;;;;;;;21.18;62.98;100158.25;10292369;28;20746;-58
2023/06/08 21:20:58;;;;;;;9.20;6.20;;;;;;;21.04;62.77;100162.41;10286182;28;20058;-58
2023/06/08 21:26:00;;;;;;;10.00;6.15;;;;;;;20.97;62.64;100159.81;10287146;28;20055;-58
2023/06/08 21:31:02;;;;;;;9.48;6.13;;;;;;;20.78;62.68;100143.69;10295767;28;20666;-58
2023/06/08 21:36:04;;;;;;;9.32;5.65;;;;;;;20.71;63.03;100142.19;10293539;28;20077;-58
2023/06/08 21:41:11;;;;;;;7.10;6.35;;;;;;;20.65;62.56;100143.19;10289191;28;20102;-57
2023/06/08 21:46:13;;;;;;;5.70;5.05;;;;;;;20.55;63.01;100150.09;10288265;28;20493;-58
2023/06/08 21:51:14;;;;;;;5.82;4.78;;;;;;;20.50;62.40;100150.03;10289810;28;20050;-58
2023/06/08 21:56:16;;;;;;;6.28;4.70;;;;;;;20.47;62.31;100145.06;10282760;28;20059;-58
2023/06/08 22:01:17;;;;;;;5.70;4.85;;;;;;;20.43;62.37;100149.34;10293200;28;20401;-57
2023/06/08 22:06:20;;;;;;;5.47;4.93;;;;;;;20.32;62.14;100137.44;10285069;28;20097;-58
2023/06/08 22:11:22;;;;;;;7.65;5.47;;;;;;;20.28;62.17;100129.97;10278355;28;20038;-57
2023/06/08 22:16:24;;;;;;;6.97;4.95;;;;;;;20.25;62.34;100127.75;10287096;28;20062;-58
2023/06/08 22:21:25;;;;;;;7.03;5.18;;;;;;;20.21;62.75;100121.94;10288231;28;20395;-57
2023/06/08 22:26:27;;;;;;;6.55;5.95;;;;;;;20.10;62.59;100110.03;10283812;28;20051;-57
2023/06/08 22:31:28;;;;;;;8.05;5.93;;;;;;;19.99;63.23;100100.81;10279461;28;20054;-57
2023/06/08 22:36:31;;;;;;;6.13;5.13;;;;;;;19.64;64.00;100094.63;10285790;28;20049;-64
2023/06/08 22:41:33;;;;;;;7.05;5.70;;;;;;;19.56;63.93;100085.75;10283281;28;20085;-61
2023/06/08 22:46:34;;;;;;;8.25;6.20;;;;;;;19.55;63.88;100092.28;10287755;28;20054;-62
2023/06/08 22:51:36;;;;;;;11.95;5.57;;;;;;;19.58;63.45;100089.06;10282131;28;20039;-61
2023/06/08 22:56:38;;;;;;;8.32;5.28;;;;;;;19.54;63.54;100085.16;10285535;28;20042;-61
2023/06/08 23:01:39;;;;;;;9.63;5.63;;;;;;;19.46;63.68;100093.72;10291884;28;20050;-61
2023/06/08 23:06:41;;;;;;;7.30;5.63;;;;;;;19.41;63.93;100090.88;10296020;28;20118;-62
2023/06/08 23:11:42;;;;;;;6.45;5.32;;;;;;;19.36;64.11;100088.88;10295544;28;20050;-62